Updated23/01/2019 02:00 
 

GeoURL
free counters
Scottish Weather Network UK Weather Network Cumulus Top Weather Sites

Peebles Weather - Nearby METAR Reports

Raw Data, Raw Data Expanded

Ignore low humidity and Dew Point values. Something wrong with the sensor.
Daytime temperatures are in direct sunlight so may be higher than official air temperature values.
As with any other website, we log your IP address and browser type in the server logs for diagnostic reasons. Cookies are used to record visit time and gauges preferences. No personal information is stored or processed.

All times are in local time (GMT, or BST in summer) unless specified.

2019/01/23 01:50 EGPH 230150Z 26004KT CAVOK M04/M05 Q0998
-1.7°C 0.0 mm 0.0 mm 2.4 mm 0.0 mph 0.0 mph 993.8 hPa 10% X-Ray Solar Flare Level
Planetary K-Index
Planetary K-Index History
Station Warn Rain Snow Flood Wind Ltng Heat Cold Glob Moon Temp Rain 1h Rain Wed Rain 24h Wind 10m Gust Pressure Hum Proton Levels
Ice
0.33 m Waning Gibbous Uncomfortably Cold F0-NW F: A: Kp:0 SSN:0

METAR Reports

 

EGPH - Edinburgh Airpor, United Kingdom
Distance from station: NNW 22mi, 36km
Updated: 23/01/2019 01:50
Clear
Clear
 Wind from W
Wind: W 5 mph , 7 km/h
Temperature: -4°C
Wind Chill: -7°C
Dew Point: -5°C
Humidity: 93%
Barometer: 998 hPa
Summary: Clear
Visibility: greater than 7 miles , 10 km
2019/01/23 01:50 EGPH 230150Z 26004KT CAVOK M04/M05 Q0998
EGOM - Spadeadam, United Kingdom
Distance from station: SSE 49mi, 79km
Updated: 23/01/2019 00:50
Mist, Few clouds
Mist, Few clouds
 Wind from W
Wind: W 5 mph , 7 km/h
Temperature: -5°C
Wind Chill: -8°C
Dew Point: -6°C
Humidity: 93%
Barometer: 996 hPa
Summary: Mist
Clouds: Few Clouds
Visibility: 1 mile , 1 km
Cloud details: Few Clouds 30 m
2019/01/23 00:50 EGOM 230050Z AUTO 27004KT 1400 BR FEW001/// M05/M06 Q0996 REDZ
 
EGNC - Carlisle, United Kingdom
Distance from station: SSE 51mi, 82km
Updated: 12/10/2018 14:50
NOT Current
Light rain, Showers, Overcast
Light rain, Showers, Overcast
 Wind from S
Wind: S 21 mph , 33 km/h, Gust: 38 mph , 61 km/h
Temperature: 16°C
Dew Point: 14°C
Humidity: 88%
Barometer: 992 hPa
Summary: Light rain, Showers
Clouds: Overcast
Visibility: 3 miles , 5 km
Cloud details: Partly cloudy 305 m
Overcast 488 m
2018/10/12 13:50 EGNC 121350Z 18018G33KT 140V220 5000 -SHRA SCT010 OVC016 16/14 Q0992
EGPF - Glasgow Airport, United Kingdom
Distance from station: WNW 51mi, 82km
Updated: 23/01/2019 01:50
Clear
Clear
 Wind from varies
Wind: varies 1 mph , 2 km/h
Temperature: -4°C
Dew Point: -5°C
Humidity: 93%
Barometer: 999 hPa
Clouds: Clear
Visibility: 6 miles , 9 km
2019/01/23 01:50 EGPF 230150Z AUTO VRB01KT 9000 NCD M04/M05 Q0999
 
EGQL - Leuchars Raf, United Kingdom
Distance from station: NNE 53mi, 85km
Updated: 23/01/2019 01:50
Clear
Clear
 Wind from W
Wind: W 7 mph , 11 km/h
Temperature: -3°C
Wind Chill: -7°C
Dew Point: -4°C
Humidity: 93%
Barometer: 997 hPa
Summary: Clear
Visibility: greater than 7 miles , 10 km
2019/01/23 01:50 EGQL 230150Z 27006KT CAVOK M03/M04 Q0997 BLU
EGPK - Prestwick(Civ/Na, United Kingdom
Distance from station: W 55mi, 89km
Updated: 23/01/2019 01:50
Few Clouds
Few Clouds
 Wind from calm
Wind: Calm
Temperature: -3°C
Dew Point: -3°C
Humidity: 100%
Barometer: 999 hPa
Clouds: Few Clouds
Visibility: 6 miles , 10 km
Cloud details: Few Clouds 549 m
2019/01/23 01:50 EGPK 230150Z 00000KT 9999 FEW018 M03/M03 Q0999
 
EGPN - Dundee/Riverside, United Kingdom
Distance from station: N 56mi, 90km
Updated: 22/01/2019 20:20
NOT Current
Few Clouds
Few Clouds
 Wind from NW
Wind: NW 3 mph , 6 km/h
Temperature: -1°C
Dew Point: -2°C
Humidity: 93%
Barometer: 996 hPa
Clouds: Few Clouds
Visibility: 6 miles , 10 km
Cloud details: Few Clouds 762 m
2019/01/22 20:20 EGPN 222020Z 32003KT 9999 FEW025 M01/M02 Q0996
EGNT - Newcastle, United Kingdom
Distance from station: SE 72mi, 116km
Updated: 23/01/2019 00:50
Few Clouds
Few Clouds
 Wind from WSW
Wind: WSW 3 mph , 6 km/h
Temperature: -3°C
Dew Point: -3°C
Humidity: 100%
Barometer: 996 hPa
Clouds: Few Clouds
Visibility: 5 miles , 8 km
Cloud details: Few Clouds 457 m
2019/01/23 00:50 EGNT 230050Z 24003KT 8000 FEW015 M03/M03 Q0996
 
EGNV - Tees-Side, United Kingdom
Distance from station: SE 104mi, 168km
Updated: 22/01/2019 21:50
NOT Current
Few Clouds
Few Clouds
 Wind from SW
Wind: SW 3 mph , 6 km/h
Temperature: -3°C
Dew Point: -3°C
Humidity: 100%
Barometer: 996 hPa
Clouds: Few Clouds
Visibility: 6 miles , 10 km
Cloud details: Few Clouds 1372 m
2019/01/22 21:50 EGNV 222150Z 22003KT 9999 FEW045 M03/M03 Q0996
EGPD - Aberdeen/Dyce, United Kingdom
Distance from station: NNE 114mi, 183km
Updated: 23/01/2019 01:50
Clear
Clear
 Wind from varies
Wind: varies 1 mph , 2 km/h
Temperature: -4°C
Dew Point: -6°C
Humidity: 86%
Barometer: 997 hPa
Clouds: Clear
Visibility: 6 miles , 10 km
2019/01/23 01:50 EGPD 230150Z AUTO VRB01KT 9999 NCD M04/M06 Q0997 NOSIG
 
EGNS - Isle Of Man/Rona, United Kingdom
Distance from station: SSW 122mi, 197km
Updated: 23/01/2019 01:50
Partly cloudy
Partly cloudy
 Wind from varies
Wind: varies 3 mph , 6 km/h
Temperature: 1°C
Dew Point: 0°C
Humidity: 93%
Barometer: 999 hPa
Clouds: Partly cloudy
Visibility: 6 miles , 10 km
Cloud details: Few Clouds 366 m
Partly cloudy 549 m
2019/01/23 01:50 EGNS 230150Z VRB03KT 9999 FEW012 SCT018 01/00 Q0999 RESHSN RESHGS
EGAC - Belfast Harbour, United Kingdom
Distance from station: WSW 128mi, 206km
Updated: 23/01/2019 01:50
Few Clouds
Few Clouds
 Wind from varies
Wind: varies 2 mph , 4 km/h
Temperature: 1°C
Dew Point: 0°C
Humidity: 93%
Barometer: 1000 hPa
Clouds: Few Clouds
Visibility: 6 miles , 10 km
Cloud details: Few Clouds 396 m
2019/01/23 01:50 EGAC 230150Z AUTO VRB02KT 9999 FEW013/// 01/M00 Q1000
 
EGPE - Inverness/Dalcro, United Kingdom
Distance from station: NNW 134mi, 215km
Updated: 23/01/2019 01:50
Light snow, Mostly cloudy
Light snow, Mostly cloudy
 Wind from SW
Wind: SW 12 mph , 19 km/h
Temperature: 0°C
Wind Chill: -5°C
Dew Point: -1°C
Humidity: 93%
Barometer: 998 hPa
Summary: Light Snow
Clouds: Mostly cloudy
Visibility: 1 mile , 2 km
Cloud details: Mostly cloudy 671 m
Mostly cloudy 914 m
2019/01/23 01:50 EGPE 230150Z AUTO 23010KT 2100 -SN BKN022/// BKN030/// M00/M01 Q0998
XHTML 1.1 | CSS